createdAt,value
2023-02-06T00:02:10.493Z,-2.82
2023-02-06T00:05:15.218Z,-2.55
2023-02-06T00:08:18.655Z,-2.01
2023-02-06T00:11:23.871Z,-1.48
2023-02-06T00:14:27.613Z,-1.27
2023-02-06T00:17:36.534Z,-1.09
2023-02-06T00:20:42.992Z,-0.92
2023-02-06T00:23:48.155Z,-0.69
2023-02-06T00:27:00.664Z,0.05
2023-02-06T00:30:05.975Z,0.30
2023-02-06T00:33:09.385Z,0.31
2023-02-06T00:36:32.686Z,0.25
2023-02-06T00:39:37.588Z,0.09
2023-02-06T00:42:44.569Z,0.01
2023-02-06T00:45:53.635Z,-0.11
2023-02-06T00:49:05.013Z,-0.16
2023-02-06T00:52:09.790Z,-0.23
2023-02-06T00:55:13.922Z,-0.36
2023-02-06T00:58:17.439Z,-0.51
2023-02-06T01:01:22.294Z,-0.58
2023-02-06T01:04:27.994Z,-0.62
2023-02-06T01:07:31.955Z,-0.41
2023-02-06T01:10:37.556Z,-0.23
2023-02-06T01:13:41.917Z,0.06
2023-02-06T01:16:49.762Z,0.34
2023-02-06T01:20:04.481Z,0.44
2023-02-06T01:23:19.911Z,0.62
2023-02-06T01:26:28.302Z,0.72
2023-02-06T01:29:38.092Z,0.74
2023-02-06T01:32:51.356Z,0.61
2023-02-06T01:36:15.226Z,0.41
2023-02-06T01:39:19.891Z,0.24
2023-02-06T01:42:26.796Z,0.17
2023-02-06T01:45:38.238Z,0.10
2023-02-06T01:49:02.430Z,0.08
2023-02-06T01:52:31.687Z,0.26
2023-02-06T01:55:47.111Z,0.20
2023-02-06T01:59:14.089Z,0.14
2023-02-06T02:02:22.653Z,0.04
2023-02-06T02:05:27.399Z,-0.38
2023-02-06T02:08:49.017Z,-0.69
2023-02-06T02:11:53.858Z,-1.06
2023-02-06T02:15:00.161Z,-1.23
2023-02-06T02:18:14.643Z,-1.36
2023-02-06T02:21:36.397Z,-1.29
2023-02-06T02:25:24.805Z,-1.03
2023-02-06T02:29:00.103Z,-0.85
2023-02-06T02:32:53.369Z,-1.06
2023-02-06T02:36:05.069Z,-1.57
2023-02-06T02:39:57.384Z,-1.97
2023-02-06T02:43:52.681Z,-2.19
2023-02-06T02:47:00.986Z,-2.09
2023-02-06T02:50:10.396Z,-2.16
2023-02-06T02:53:21.902Z,-1.30
2023-02-06T02:56:45.146Z,-0.56
2023-02-06T02:59:50.941Z,-0.51
2023-02-06T03:03:00.640Z,-0.62
2023-02-06T03:06:49.328Z,-0.66
2023-02-06T03:10:07.295Z,-0.12
2023-02-06T03:13:31.930Z,-0.13
2023-02-06T03:17:11.851Z,-0.97
2023-02-06T03:20:17.354Z,-1.50
2023-02-06T03:23:26.122Z,-2.07
2023-02-06T03:26:53.389Z,-2.65
2023-02-06T03:30:03.146Z,-3.16
2023-02-06T03:33:12.022Z,-3.11
2023-02-06T03:36:18.440Z,-2.94
2023-02-06T03:39:27.981Z,-3.10
2023-02-06T03:42:53.655Z,-3.32
2023-02-06T03:46:20.314Z,-3.43
2023-02-06T03:49:31.911Z,-3.79
2023-02-06T03:52:45.643Z,-3.99
2023-02-06T03:55:56.893Z,-3.15
2023-02-06T03:59:01.848Z,-2.47
2023-02-06T04:02:06.180Z,-2.77
2023-02-06T04:05:10.358Z,-1.69
2023-02-06T04:08:14.292Z,-0.59
2023-02-06T04:11:39.559Z,-0.39
2023-02-06T04:14:51.740Z,-0.50
2023-02-06T04:18:01.792Z,-0.54
2023-02-06T04:21:07.222Z,-0.80
2023-02-06T04:24:31.991Z,-0.99
2023-02-06T04:27:42.018Z,-1.02
2023-02-06T04:30:48.989Z,-0.47
2023-02-06T04:33:53.154Z,0.23
2023-02-06T04:37:05.856Z,0.82
2023-02-06T04:40:13.262Z,1.18
2023-02-06T04:43:17.022Z,1.38
2023-02-06T04:46:20.227Z,1.67
2023-02-06T04:49:39.914Z,2.14
2023-02-06T04:52:53.016Z,2.44
2023-02-06T04:56:15.365Z,2.59
2023-02-06T04:59:35.489Z,2.27
2023-02-06T05:02:54.123Z,1.99
2023-02-06T05:06:10.389Z,1.68
2023-02-06T05:09:13.460Z,1.31
2023-02-06T05:12:36.536Z,0.86
2023-02-06T05:16:11.750Z,0.53
2023-02-06T05:19:43.653Z,0.09
2023-02-06T05:23:16.465Z,0.23
2023-02-06T05:26:41.525Z,0.27
2023-02-06T05:30:07.759Z,0.01
2023-02-06T05:33:33.706Z,-0.22
2023-02-06T05:37:04.247Z,-0.37
2023-02-06T05:40:09.770Z,-0.62
2023-02-06T05:43:12.638Z,-0.66
2023-02-06T05:46:28.481Z,-0.75
2023-02-06T05:49:51.597Z,-0.76
2023-02-06T05:53:02.146Z,-0.58
2023-02-06T05:56:12.644Z,-0.58
2023-02-06T05:59:36.544Z,-0.86
2023-02-06T06:02:55.096Z,-1.21
2023-02-06T06:06:08.397Z,-1.40
2023-02-06T06:09:31.735Z,-1.53
2023-02-06T06:13:03.518Z,-1.32
2023-02-06T06:16:20.083Z,-1.26
2023-02-06T06:19:29.618Z,-1.29
2023-02-06T06:22:37.166Z,-1.14
2023-02-06T06:26:01.785Z,-0.94
2023-02-06T06:29:04.798Z,-0.70
2023-02-06T06:32:10.667Z,-0.30
2023-02-06T06:35:14.049Z,-0.11
2023-02-06T06:38:34.571Z,-0.23
2023-02-06T06:41:42.068Z,-0.13
2023-02-06T06:45:00.358Z,0.23
2023-02-06T06:48:23.594Z,0.48
2023-02-06T06:51:46.222Z,0.90
2023-02-06T06:54:51.952Z,1.27
2023-02-06T06:58:11.565Z,1.43
2023-02-06T07:01:49.448Z,0.88
2023-02-06T07:04:55.374Z,-0.19
2023-02-06T07:07:59.171Z,-1.00
2023-02-06T07:11:05.005Z,-1.58
2023-02-06T07:14:09.189Z,-1.99
2023-02-06T07:17:14.272Z,-2.33
2023-02-06T07:20:26.752Z,-2.30
2023-02-06T07:23:33.917Z,-1.80
2023-02-06T07:26:36.958Z,-1.64
2023-02-06T07:29:40.028Z,-1.27
2023-02-06T07:32:47.463Z,-0.72
2023-02-06T07:35:52.693Z,0.21
2023-02-06T07:39:02.385Z,0.82
2023-02-06T07:42:06.668Z,0.11
2023-02-06T07:45:30.069Z,-0.50
2023-02-06T07:48:34.656Z,-0.91
2023-02-06T07:51:40.434Z,-1.07
2023-02-06T07:54:45.566Z,-1.21
2023-02-06T07:57:56.398Z,-1.37
2023-02-06T08:01:06.360Z,-1.51
2023-02-06T08:04:13.501Z,-1.00
2023-02-06T08:07:26.080Z,0.01
2023-02-06T08:10:33.283Z,0.46
2023-02-06T08:14:05.138Z,0.08
2023-02-06T08:17:08.157Z,-0.27
2023-02-06T08:20:17.169Z,-0.44
2023-02-06T08:23:24.610Z,-0.53
2023-02-06T08:26:30.343Z,-0.65
2023-02-06T08:29:44.283Z,-0.80
2023-02-06T08:33:08.430Z,-0.89
2023-02-06T08:36:28.123Z,-0.95
2023-02-06T08:39:32.774Z,-0.99
2023-02-06T08:42:56.335Z,-0.99
2023-02-06T08:46:02.555Z,-1.02
2023-02-06T08:49:08.456Z,-1.18
2023-02-06T08:52:13.393Z,-1.40
2023-02-06T08:55:17.153Z,-1.60
2023-02-06T08:58:25.680Z,-1.79
2023-02-06T09:01:32.119Z,-1.97
2023-02-06T09:04:37.893Z,-2.09
2023-02-06T09:07:42.735Z,-2.07
2023-02-06T09:10:47.727Z,-2.02
2023-02-06T09:13:54.605Z,-1.97
2023-02-06T09:16:58.557Z,-1.30
2023-02-06T09:20:02.637Z,-0.02
2023-02-06T09:23:13.830Z,-0.28
2023-02-06T09:26:20.526Z,-0.96
2023-02-06T09:29:27.191Z,-1.40
2023-02-06T09:32:30.821Z,-1.69
2023-02-06T09:35:35.240Z,-1.85
2023-02-06T09:38:51.970Z,-1.91
2023-02-06T09:42:11.312Z,-1.96
2023-02-06T09:45:22.939Z,-2.02
2023-02-06T09:48:32.975Z,-2.06
2023-02-06T09:52:16.796Z,-2.13
2023-02-06T09:56:07.071Z,-2.23
2023-02-06T09:59:43.026Z,-2.20
2023-02-06T10:03:30.137Z,-2.16
2023-02-06T10:06:54.396Z,-2.05
2023-02-06T10:11:05.100Z,-1.82
2023-02-06T10:14:55.134Z,-1.59
2023-02-06T10:18:12.925Z,-1.55
2023-02-06T10:21:39.394Z,-1.51
2023-02-06T10:25:02.186Z,-1.57
2023-02-06T10:28:29.189Z,-1.78
2023-02-06T10:32:02.492Z,-1.90
2023-02-06T10:35:44.045Z,-1.87
2023-02-06T10:39:08.083Z,-1.67
2023-02-06T10:42:29.368Z,-1.49
2023-02-06T10:45:43.909Z,-1.25
2023-02-06T10:48:54.400Z,-1.05
2023-02-06T10:52:20.331Z,-1.06
2023-02-06T10:55:36.761Z,-1.13
2023-02-06T10:58:51.648Z,-1.21
2023-02-06T11:02:19.418Z,-1.23
2023-02-06T11:05:50.505Z,-1.21
2023-02-06T11:08:58.099Z,-1.09
2023-02-06T11:12:03.914Z,-0.95
2023-02-06T11:15:49.901Z,-0.89
2023-02-06T11:19:16.126Z,-0.83
2023-02-06T11:22:47.727Z,-0.67
2023-02-06T11:26:15.379Z,-0.48
2023-02-06T11:29:45.794Z,-0.31
2023-02-06T11:33:17.158Z,-0.28
2023-02-06T11:36:43.853Z,-0.39
2023-02-06T11:39:49.997Z,-0.26
2023-02-06T11:43:16.360Z,-0.22
2023-02-06T11:46:35.374Z,-0.27
2023-02-06T11:49:47.950Z,-0.33
2023-02-06T11:53:11.362Z,-0.32
2023-02-06T11:56:24.235Z,-0.39
2023-02-06T11:59:56.246Z,-0.40
2023-02-06T12:03:03.751Z,-0.25
2023-02-06T12:06:18.971Z,-0.10
2023-02-06T12:09:50.846Z,0.05
2023-02-06T12:13:17.389Z,0.24
2023-02-06T12:16:25.916Z,0.20
2023-02-06T12:19:58.813Z,0.09
2023-02-06T12:23:53.191Z,-0.05
2023-02-06T12:27:15.209Z,-0.17
2023-02-06T12:30:58.118Z,-0.29
2023-02-06T12:34:22.198Z,-0.42
2023-02-06T12:37:52.356Z,-0.57
2023-02-06T12:41:33.019Z,-0.53
2023-02-06T12:44:57.190Z,-0.82
2023-02-06T12:48:36.782Z,-0.88
2023-02-06T12:52:39.814Z,-0.90
2023-02-06T12:56:13.647Z,-1.04
2023-02-06T12:59:43.719Z,-1.12
2023-02-06T13:03:32.917Z,-1.19
2023-02-06T13:07:27.488Z,-1.23
2023-02-06T13:10:31.303Z,-1.29
2023-02-06T13:13:47.576Z,-1.35
2023-02-06T13:17:19.042Z,-1.40
2023-02-06T13:21:54.255Z,-1.47
2023-02-06T13:25:06.979Z,-1.50
2023-02-06T13:28:42.396Z,-1.49
2023-02-06T13:32:12.622Z,-1.57
2023-02-06T13:35:54.941Z,-1.61
2023-02-06T13:39:36.403Z,-1.61
2023-02-06T13:43:36.284Z,-1.59
2023-02-06T13:47:44.965Z,-1.55
2023-02-06T13:50:56.461Z,-1.59
2023-02-06T13:54:59.103Z,-1.62
2023-02-06T13:58:41.496Z,-1.72
2023-02-06T14:02:50.141Z,-1.78
2023-02-06T14:15:10.540Z,-2.22
2023-02-06T14:18:47.477Z,-2.41
2023-02-06T14:22:42.583Z,-2.60
2023-02-06T14:27:09.166Z,-2.88
2023-02-06T14:31:21.935Z,-3.06
2023-02-06T14:35:10.028Z,-3.30
2023-02-06T14:39:22.952Z,-3.16
2023-02-06T14:43:20.501Z,-2.57
2023-02-06T14:46:43.735Z,-2.48
2023-02-06T14:50:08.787Z,-2.30
2023-02-06T14:54:01.195Z,-2.57
2023-02-06T14:57:24.206Z,-3.12
2023-02-06T15:00:48.287Z,-3.43
2023-02-06T15:04:23.723Z,-2.97
2023-02-06T15:07:38.707Z,-3.01
2023-02-06T15:10:59.401Z,-3.09
2023-02-06T15:15:44.572Z,-2.78
2023-02-06T15:19:30.952Z,-2.47
2023-02-06T15:23:32.847Z,-2.11
2023-02-06T15:27:53.520Z,-2.12
2023-02-06T15:31:23.461Z,-2.82
2023-02-06T15:35:09.186Z,-3.43
2023-02-06T15:38:32.613Z,-3.54
2023-02-06T15:42:03.732Z,-3.27
2023-02-06T15:45:16.446Z,-2.49
2023-02-06T15:49:19.099Z,-1.53
2023-02-06T15:52:42.400Z,-2.17
2023-02-06T15:56:29.343Z,-3.07
2023-02-06T16:00:23.928Z,-3.85
2023-02-06T16:03:37.223Z,-4.10
2023-02-06T16:07:32.668Z,-4.09
2023-02-06T16:11:56.826Z,-3.80
2023-02-06T16:15:39.107Z,-2.91
2023-02-06T16:19:42.665Z,-2.70
2023-02-06T16:23:47.321Z,-2.25
2023-02-06T16:27:18.933Z,-2.10
2023-02-06T16:31:34.558Z,-2.58
2023-02-06T16:34:55.765Z,-3.75
2023-02-06T16:38:19.563Z,-4.49
2023-02-06T16:41:54.226Z,-4.91
2023-02-06T16:45:41.315Z,-5.14
2023-02-06T16:49:19.312Z,-3.84
2023-02-06T16:53:18.782Z,-2.44
2023-02-06T16:56:42.590Z,-1.93
2023-02-06T17:00:08.938Z,-1.66
2023-02-06T17:03:34.162Z,-1.55
2023-02-06T17:07:13.659Z,-1.52
2023-02-06T17:10:38.831Z,-1.39
2023-02-06T17:14:05.807Z,-1.36
2023-02-06T17:17:31.006Z,-1.39
2023-02-06T17:20:59.664Z,-1.64
2023-02-06T17:24:27.329Z,-2.07
2023-02-06T17:28:06.766Z,-2.49
2023-02-06T17:31:33.811Z,-2.73
2023-02-06T17:34:57.989Z,-3.04
2023-02-06T17:38:24.012Z,-3.14
2023-02-06T17:41:47.270Z,-3.23
2023-02-06T17:45:21.658Z,-3.07
2023-02-06T17:49:05.053Z,-2.90
2023-02-06T17:52:25.284Z,-2.77
2023-02-06T17:55:51.107Z,-2.63
2023-02-06T17:59:20.914Z,-2.44
2023-02-06T18:03:03.849Z,-2.44
2023-02-06T18:06:47.808Z,-2.43
2023-02-06T18:10:19.561Z,-2.48
2023-02-06T18:13:49.359Z,-2.34
2023-02-06T18:17:31.380Z,-2.49
2023-02-06T18:20:58.003Z,-3.06
2023-02-06T18:24:29.822Z,-3.37
2023-02-06T18:27:55.217Z,-2.85
2023-02-06T18:31:37.559Z,-2.43
2023-02-06T18:35:07.643Z,-2.29
2023-02-06T18:38:51.922Z,-2.12
2023-02-06T18:42:35.328Z,-2.16
2023-02-06T18:46:02.052Z,-2.43
2023-02-06T18:49:28.150Z,-2.46
2023-02-06T18:52:52.181Z,-2.48
2023-02-06T18:56:33.937Z,-2.67
2023-02-06T19:00:04.004Z,-2.61
2023-02-06T19:03:33.613Z,-2.67
2023-02-06T19:06:53.570Z,-2.91
2023-02-06T19:10:39.755Z,-3.12
2023-02-06T19:14:06.169Z,-3.05
2023-02-06T19:17:49.980Z,-2.97
2023-02-06T19:21:32.210Z,-3.01
2023-02-06T19:25:14.711Z,-4.54
2023-02-06T19:28:39.583Z,-4.88
2023-02-06T19:32:04.295Z,-4.35
2023-02-06T19:35:23.699Z,-4.08
2023-02-06T19:38:49.416Z,-4.05
2023-02-06T19:42:19.947Z,-4.00
2023-02-06T19:45:40.416Z,-3.96
2023-02-06T19:49:32.210Z,-4.01
2023-02-06T19:52:59.143Z,-3.97
2023-02-06T19:56:56.388Z,-3.96
2023-02-06T20:00:30.329Z,-3.91
2023-02-06T20:03:48.706Z,-3.83
2023-02-06T20:07:13.779Z,-3.81
2023-02-06T20:10:38.410Z,-4.03
2023-02-06T20:14:05.430Z,-4.11
2023-02-06T20:17:30.740Z,-4.28
2023-02-06T20:20:50.013Z,-4.40
2023-02-06T20:24:34.256Z,-4.39
2023-02-06T20:28:14.088Z,-4.25
2023-02-06T20:31:41.031Z,-4.33
2023-02-06T20:35:31.959Z,-4.56
2023-02-06T20:38:57.039Z,-4.80
2023-02-06T20:42:28.847Z,-4.91
2023-02-06T20:45:53.004Z,-4.81
2023-02-06T20:49:43.422Z,-4.52
2023-02-06T20:53:08.769Z,-4.44
2023-02-06T20:56:35.640Z,-4.72
2023-02-06T20:59:59.757Z,-4.99
2023-02-06T21:03:25.653Z,-5.17
2023-02-06T21:06:53.766Z,-5.37
2023-02-06T21:10:36.704Z,-5.33
2023-02-06T21:14:03.289Z,-5.26
2023-02-06T21:17:28.815Z,-5.58
2023-02-06T21:21:11.631Z,-5.66
2023-02-06T21:24:46.347Z,-6.01
2023-02-06T21:28:17.678Z,-6.52
2023-02-06T21:31:48.611Z,-6.94
2023-02-06T21:35:16.537Z,-6.69
2023-02-06T21:39:03.930Z,-5.18
2023-02-06T21:42:13.439Z,-4.61
2023-02-06T21:45:40.173Z,-4.50
2023-02-06T21:49:24.219Z,-3.78
2023-02-06T21:52:42.863Z,-3.08
2023-02-06T21:56:10.408Z,-2.79
2023-02-06T21:59:34.683Z,-2.30
2023-02-06T22:02:59.947Z,-1.58
2023-02-06T22:09:23.427Z,-1.50
2023-02-06T22:12:51.153Z,-3.46
2023-02-06T22:16:15.439Z,-5.08
2023-02-06T22:19:40.491Z,-5.15
2023-02-06T22:23:08.037Z,-4.37
2023-02-06T22:26:47.314Z,-4.59
2023-02-06T22:30:12.979Z,-5.21
2023-02-06T22:34:05.553Z,-5.20
2023-02-06T22:37:50.922Z,-5.03
2023-02-06T22:41:37.141Z,-4.87
2023-02-06T22:45:03.611Z,-4.80
2023-02-06T22:48:23.085Z,-4.49
2023-02-06T22:51:46.311Z,-4.50
2023-02-06T22:55:09.568Z,-4.67
2023-02-06T22:58:34.926Z,-4.71
2023-02-06T23:02:17.930Z,-4.84
2023-02-06T23:14:19.594Z,-3.42
2023-02-06T23:17:49.866Z,-5.00
2023-02-06T23:21:23.871Z,-4.96
2023-02-06T23:24:36.822Z,-4.89
2023-02-06T23:28:00.833Z,-4.87
2023-02-06T23:31:44.620Z,-4.51
2023-02-06T23:35:08.010Z,-4.07
2023-02-06T23:38:31.148Z,-3.55
2023-02-06T23:41:54.323Z,-3.61
2023-02-06T23:45:17.673Z,-3.51
2023-02-06T23:48:35.451Z,-3.38
2023-02-06T23:52:11.875Z,-3.30
2023-02-06T23:58:45.208Z,-3.42
